createdAt,value
2024-02-15T00:08:35.804Z,9.85
2024-02-15T00:13:37.855Z,9.86
2024-02-15T00:18:40.793Z,9.88
2024-02-15T00:23:43.784Z,9.86
2024-02-15T00:28:45.644Z,9.72
2024-02-15T00:33:47.869Z,9.47
2024-02-15T00:38:50.258Z,9.24
2024-02-15T00:43:52.131Z,9.01
2024-02-15T00:48:54.080Z,8.82
2024-02-15T00:53:55.968Z,8.67
2024-02-15T00:58:58.131Z,8.60
2024-02-15T01:03:59.928Z,8.47
2024-02-15T01:09:03.405Z,8.26
2024-02-15T01:14:05.317Z,8.02
2024-02-15T01:19:07.196Z,7.79
2024-02-15T01:24:09.007Z,7.64
2024-02-15T01:29:13.420Z,7.58
2024-02-15T01:34:15.405Z,7.63
2024-02-15T01:39:17.668Z,7.79
2024-02-15T01:44:22.787Z,7.88
2024-02-15T01:49:25.895Z,7.97
2024-02-15T01:54:28.679Z,8.05
2024-02-15T01:59:31.823Z,8.14
2024-02-15T02:04:33.624Z,8.23
2024-02-15T02:09:35.685Z,8.21
2024-02-15T02:14:37.470Z,8.25
2024-02-15T02:19:39.866Z,8.33
2024-02-15T02:24:56.616Z,8.39
2024-02-15T02:30:00.669Z,8.47
2024-02-15T02:35:03.237Z,8.51
2024-02-15T02:40:09.751Z,8.58
2024-02-15T02:45:11.587Z,8.70
2024-02-15T02:50:13.844Z,8.82
2024-02-15T02:55:57.306Z,8.91
2024-02-15T03:01:01.695Z,8.93
2024-02-15T03:06:04.029Z,8.76
2024-02-15T03:11:05.860Z,8.75
2024-02-15T03:16:07.544Z,8.84
2024-02-15T03:21:12.013Z,8.67
2024-02-15T03:26:14.068Z,8.70
2024-02-15T03:31:16.129Z,8.76
2024-02-15T03:36:21.219Z,8.83
2024-02-15T03:41:23.686Z,8.93
2024-02-15T03:46:25.455Z,9.00
2024-02-15T03:51:27.238Z,9.01
2024-02-15T03:56:29.384Z,9.04
2024-02-15T04:01:35.228Z,9.05
2024-02-15T04:06:37.626Z,9.11
2024-02-15T04:11:39.765Z,9.08
2024-02-15T04:16:41.740Z,9.10
2024-02-15T04:21:45.187Z,9.19
2024-02-15T04:26:49.497Z,9.09
2024-02-15T04:31:51.479Z,8.96
2024-02-15T04:36:56.868Z,9.03
2024-02-15T04:41:58.729Z,9.04
2024-02-15T04:47:00.539Z,9.11
2024-02-15T04:52:05.308Z,9.16
2024-02-15T04:57:09.938Z,9.21
2024-02-15T05:02:12.628Z,9.24
2024-02-15T05:07:18.094Z,9.27
2024-02-15T05:12:25.493Z,9.18
2024-02-15T05:17:31.085Z,9.18
2024-02-15T05:22:34.012Z,9.24
2024-02-15T05:27:37.195Z,9.20
2024-02-15T05:32:43.081Z,9.11
2024-02-15T05:37:45.260Z,9.08
2024-02-15T05:42:47.512Z,9.03
2024-02-15T05:47:49.418Z,9.08
2024-02-15T05:52:54.271Z,9.13
2024-02-15T05:57:56.119Z,9.14
2024-02-15T06:02:58.042Z,9.17
2024-02-15T06:08:00.108Z,9.04
2024-02-15T06:13:02.081Z,8.95
2024-02-15T06:18:10.568Z,9.01
2024-02-15T06:23:12.680Z,9.01
2024-02-15T06:28:20.946Z,9.01
2024-02-15T06:33:41.192Z,8.93
2024-02-15T06:39:01.578Z,8.78
2024-02-15T06:44:05.603Z,8.50
2024-02-15T06:49:07.672Z,8.31
2024-02-15T06:54:09.530Z,8.16
2024-02-15T06:59:11.679Z,8.03
2024-02-15T07:04:13.547Z,7.99
2024-02-15T07:09:22.786Z,7.98
2024-02-15T07:14:24.662Z,7.99
2024-02-15T07:19:28.894Z,8.10
2024-02-15T07:24:31.137Z,8.20
2024-02-15T07:29:33.766Z,8.28
2024-02-15T07:34:35.696Z,8.41
2024-02-15T07:39:37.804Z,8.58
2024-02-15T07:44:39.694Z,8.78
2024-02-15T07:49:43.076Z,9.04
2024-02-15T07:54:45.174Z,9.22
2024-02-15T07:59:49.447Z,9.37
2024-02-15T08:04:51.729Z,9.44
2024-02-15T08:09:56.065Z,9.52
2024-02-15T08:14:59.390Z,9.59
2024-02-15T08:20:01.352Z,9.57
2024-02-15T08:25:06.086Z,9.57
2024-02-15T08:30:10.475Z,9.64
2024-02-15T08:35:14.267Z,9.84
2024-02-15T08:40:16.716Z,10.01
2024-02-15T08:45:18.581Z,10.24
2024-02-15T08:50:22.486Z,10.51
2024-02-15T08:55:28.410Z,10.78
2024-02-15T09:00:30.296Z,11.06
2024-02-15T09:05:32.129Z,11.38
2024-02-15T09:10:34.053Z,11.49
2024-02-15T09:15:36.732Z,11.68
2024-02-15T09:20:41.476Z,11.86
2024-02-15T09:25:46.095Z,12.07
2024-02-15T09:30:48.554Z,12.19
2024-02-15T09:35:50.427Z,12.33
2024-02-15T09:40:52.692Z,12.44
2024-02-15T09:45:54.426Z,12.61
2024-02-15T09:50:57.660Z,12.73
2024-02-15T09:56:05.549Z,12.88
2024-02-15T10:01:11.456Z,13.13
2024-02-15T10:06:13.808Z,13.39
2024-02-15T10:11:17.290Z,13.55
2024-02-15T10:16:20.659Z,13.79
2024-02-15T10:21:34.819Z,14.04
2024-02-15T10:26:37.638Z,14.32
2024-02-15T10:31:42.898Z,14.48
2024-02-15T10:36:45.020Z,14.66
2024-02-15T10:41:52.619Z,14.82
2024-02-15T10:46:54.817Z,14.97
2024-02-15T10:52:05.341Z,15.18
2024-02-15T10:57:07.712Z,15.26
2024-02-15T11:02:31.197Z,15.49
2024-02-15T11:07:33.854Z,15.62
2024-02-15T11:12:36.783Z,15.90
2024-02-15T11:17:51.869Z,15.98
2024-02-15T11:23:01.032Z,16.26
2024-02-15T11:28:41.996Z,16.24
2024-02-15T11:33:44.614Z,16.52
2024-02-15T11:38:46.478Z,16.59
2024-02-15T11:43:51.354Z,16.63
2024-02-15T11:48:57.994Z,16.58
2024-02-15T11:54:07.576Z,16.53
2024-02-15T11:59:09.443Z,16.56
2024-02-15T12:04:29.913Z,16.58
2024-02-15T12:09:50.575Z,16.43
2024-02-15T12:15:19.233Z,16.54
2024-02-15T12:20:26.619Z,16.77
2024-02-15T12:25:28.769Z,16.58
2024-02-15T12:30:37.901Z,16.64
2024-02-15T12:35:40.516Z,16.62
2024-02-15T12:40:44.586Z,16.82
2024-02-15T12:45:48.387Z,17.19
2024-02-15T12:50:50.467Z,17.41
2024-02-15T12:55:56.422Z,17.60
2024-02-15T13:01:00.129Z,17.76
2024-02-15T13:06:02.226Z,17.54
2024-02-15T13:11:04.791Z,17.38
2024-02-15T13:16:07.481Z,17.43
2024-02-15T13:21:11.665Z,17.43
2024-02-15T13:26:15.764Z,17.41
2024-02-15T13:31:17.649Z,17.17
2024-02-15T13:36:21.221Z,17.27
2024-02-15T13:41:23.117Z,17.35
2024-02-15T13:46:25.706Z,17.41
2024-02-15T13:51:27.546Z,17.37
2024-02-15T13:56:29.343Z,17.38
2024-02-15T14:01:31.102Z,17.34
2024-02-15T14:06:33.145Z,17.21
2024-02-15T14:11:35.094Z,17.00
2024-02-15T14:16:36.873Z,16.91
2024-02-15T14:21:39.868Z,16.86
2024-02-15T14:26:41.997Z,16.75
2024-02-15T14:32:02.057Z,16.64
2024-02-15T14:37:07.123Z,16.59
2024-02-15T14:47:13.645Z,16.39
2024-02-15T14:52:16.074Z,16.32
2024-02-15T14:57:20.715Z,16.23
2024-02-15T15:02:23.431Z,16.12
2024-02-15T15:07:43.496Z,16.04
2024-02-15T15:12:46.843Z,15.99
2024-02-15T15:17:48.683Z,15.95
2024-02-15T15:22:50.804Z,15.89
2024-02-15T15:27:52.986Z,15.79
2024-02-15T15:32:54.985Z,15.70
2024-02-15T15:38:00.290Z,15.64
2024-02-15T15:43:03.774Z,15.56
2024-02-15T15:48:07.299Z,15.48
2024-02-15T15:53:11.175Z,15.39
2024-02-15T15:58:13.125Z,15.32
2024-02-15T16:03:15.533Z,15.15
2024-02-15T16:08:17.259Z,15.03
2024-02-15T16:13:21.314Z,14.90
2024-02-15T16:18:24.650Z,14.79
2024-02-15T16:23:27.059Z,14.75
2024-02-15T16:28:28.828Z,14.60
2024-02-15T16:33:30.745Z,14.46
2024-02-15T16:38:34.224Z,14.36
2024-02-15T16:43:36.841Z,14.31
2024-02-15T16:48:38.718Z,14.23
2024-02-15T16:53:40.814Z,14.17
2024-02-15T16:58:42.681Z,14.10
2024-02-15T17:03:44.688Z,14.05
2024-02-15T17:08:47.375Z,13.96
2024-02-15T17:13:50.115Z,13.88
2024-02-15T17:18:52.376Z,13.66
2024-02-15T17:23:54.548Z,13.45
2024-02-15T17:28:58.351Z,13.26
2024-02-15T17:34:00.274Z,13.12
2024-02-15T17:39:02.533Z,12.95
2024-02-15T17:44:05.016Z,12.85
2024-02-15T17:49:06.946Z,12.71
2024-02-15T17:54:09.079Z,12.64
2024-02-15T17:59:12.261Z,12.55
2024-02-15T18:04:14.149Z,12.43
2024-02-15T18:09:15.921Z,12.46
2024-02-15T18:14:17.891Z,12.46
2024-02-15T18:19:21.039Z,12.43
2024-02-15T18:24:23.078Z,12.39
2024-02-15T18:29:28.036Z,12.32
2024-02-15T18:34:29.985Z,12.23
2024-02-15T18:39:32.549Z,12.17
2024-02-15T18:44:34.452Z,12.08
2024-02-15T18:49:41.158Z,11.93
2024-02-15T18:54:45.797Z,11.82
2024-02-15T18:59:47.633Z,11.78
2024-02-15T19:04:50.417Z,11.77
2024-02-15T19:09:52.255Z,11.73
2024-02-15T19:14:54.615Z,11.66
2024-02-15T19:19:56.435Z,11.52
2024-02-15T19:24:58.274Z,11.40
2024-02-15T19:30:00.637Z,11.30
2024-02-15T19:35:02.785Z,11.25
2024-02-15T19:40:08.949Z,11.15
2024-02-15T19:45:10.971Z,11.05
2024-02-15T19:50:16.300Z,10.87
2024-02-15T19:55:18.238Z,10.71
2024-02-15T20:00:20.637Z,10.59
2024-02-15T20:05:25.136Z,10.52
2024-02-15T20:10:26.994Z,10.46
2024-02-15T20:15:30.682Z,10.39
2024-02-15T20:20:34.162Z,10.37
2024-02-15T20:25:36.077Z,10.36
2024-02-15T20:30:39.272Z,10.38
2024-02-15T20:35:44.421Z,10.36
2024-02-15T20:40:46.189Z,10.32
2024-02-15T20:45:48.203Z,10.27
2024-02-15T20:50:51.815Z,10.15
2024-02-15T20:55:53.652Z,10.04
2024-02-15T21:00:56.188Z,9.86
2024-02-15T21:05:58.095Z,9.67
2024-02-15T21:11:01.173Z,9.49
2024-02-15T21:16:05.464Z,9.33
2024-02-15T21:21:10.393Z,9.22
2024-02-15T21:26:12.542Z,9.18
2024-02-15T21:31:17.157Z,9.17
2024-02-15T21:36:19.940Z,9.14
2024-02-15T21:41:22.387Z,9.13
2024-02-15T21:46:24.269Z,9.12
2024-02-15T21:51:26.288Z,8.98
2024-02-15T21:56:28.461Z,8.79
2024-02-15T22:01:32.549Z,8.66
2024-02-15T22:06:34.818Z,8.64
2024-02-15T22:11:36.730Z,8.57
2024-02-15T22:16:38.752Z,8.48
2024-02-15T22:21:40.565Z,8.50
2024-02-15T22:26:42.424Z,8.53
2024-02-15T22:31:45.495Z,8.58
2024-02-15T22:36:47.392Z,8.61
2024-02-15T22:41:51.065Z,8.65
2024-02-15T22:46:55.939Z,8.74
2024-02-15T22:51:58.159Z,8.80
2024-02-15T22:57:00.031Z,8.85
2024-02-15T23:02:01.835Z,8.84
2024-02-15T23:07:05.477Z,8.82
2024-02-15T23:12:07.686Z,8.86
2024-02-15T23:17:11.943Z,8.76
2024-02-15T23:22:14.854Z,8.77
2024-02-15T23:27:17.069Z,8.81
2024-02-15T23:32:18.934Z,8.86
2024-02-15T23:37:39.252Z,8.90
2024-02-15T23:42:41.037Z,8.97
2024-02-15T23:47:43.082Z,9.00
2024-02-15T23:52:46.732Z,9.00
2024-02-15T23:57:48.584Z,9.00
